Time;durP1;ratioP1;P1;durP2;ratioP2;P2;SDS_P1;SDS_P2;PMS_P1;PMS_P2;Temp;Humidity;BMP_temperature;BMP_pressure;BME280_temperature;BME280_humidity;BME280_pressure;Samples;Min_cycle;Max_cycle;Signal;HPM_P1;HPM_P2
2021/03/15 00:01:12;;;;;;;15.58;13.85;;;;;;;12.28;52.59;98898.13;1730746;81;21203;-73
2021/03/15 00:03:40;;;;;;;14.28;12.40;;;;;;;12.27;52.58;98892.52;1728135;82;21374;-73
2021/03/15 00:06:07;;;;;;;12.73;11.43;;;;;;;12.27;52.57;98893.84;1791951;78;21155;-74
2021/03/15 00:08:35;;;;;;;13.15;11.75;;;;;;;12.27;52.58;98895.98;1794479;79;21179;-73
2021/03/15 00:11:02;;;;;;;13.22;11.83;;;;;;;12.26;52.57;98900.98;1776171;78;21206;-74
2021/03/15 00:13:30;;;;;;;14.03;12.53;;;;;;;12.26;52.57;98898.84;1785802;79;21576;-72
2021/03/15 00:15:59;;;;;;;14.90;12.93;;;;;;;12.25;52.55;98902.02;1776648;78;21151;-73
2021/03/15 00:18:26;;;;;;;13.35;11.95;;;;;;;12.25;52.55;98902.02;1773675;78;21156;-72
2021/03/15 00:20:54;;;;;;;13.85;12.00;;;;;;;12.25;52.58;98898.55;1811906;78;21166;-72
2021/03/15 00:23:21;;;;;;;13.53;12.13;;;;;;;12.25;52.54;98890.05;1796591;77;21551;-71
2021/03/15 00:25:50;;;;;;;12.18;10.93;;;;;;;12.24;52.56;98893.71;1792353;77;21107;-73
2021/03/15 00:28:17;;;;;;;13.03;11.57;;;;;;;12.25;52.53;98894.55;1801929;77;21355;-73
2021/03/15 00:30:44;;;;;;;13.00;11.68;;;;;;;12.24;52.52;98895.05;1803326;77;21162;-73
2021/03/15 00:33:12;;;;;;;13.95;12.55;;;;;;;12.23;52.53;98896.08;1811535;78;21596;-72
2021/03/15 00:35:40;;;;;;;13.85;12.35;;;;;;;12.24;52.52;98895.56;1798066;78;21599;-72
2021/03/15 00:38:08;;;;;;;13.83;12.33;;;;;;;12.23;52.52;98892.09;1811654;78;21151;-71
2021/03/15 00:40:35;;;;;;;12.88;11.55;;;;;;;12.23;52.54;98896.56;1794764;78;21801;-72
2021/03/15 00:43:04;;;;;;;14.10;12.07;;;;;;;12.22;52.53;98899.75;1807212;78;21150;-71
2021/03/15 00:45:32;;;;;;;13.70;11.97;;;;;;;12.22;52.53;98901.08;1797295;78;21162;-72
2021/03/15 00:48:00;;;;;;;13.83;12.43;;;;;;;12.22;52.51;98897.09;1815567;78;21166;-72
2021/03/15 00:50:40;;;;;;;13.50;12.10;;;;;;;12.22;52.51;98899.75;1806345;78;21480;-72
2021/03/15 00:53:04;;;;;;;13.30;11.90;;;;;;;12.22;52.50;98907.73;1798109;78;22145;-71
2021/03/15 00:55:32;;;;;;;13.62;12.23;;;;;;;12.20;52.50;98900.46;1746108;80;21350;-72
2021/03/15 00:57:59;;;;;;;14.47;12.63;;;;;;;12.20;52.50;98905.78;1801536;78;21135;-72
2021/03/15 01:00:31;;;;;;;13.85;12.37;;;;;;;12.20;52.50;98892.47;1805589;78;21207;-73
2021/03/15 01:03:13;;;;;;;13.38;11.97;;;;;;;12.20;52.52;98891.14;1816269;78;21169;-72
2021/03/15 01:05:49;;;;;;;13.20;11.80;;;;;;;12.18;52.52;98878.54;1811867;78;21253;-72
2021/03/15 01:08:27;;;;;;;14.03;11.78;;;;;;;12.16;52.54;98880.58;1807939;77;21432;-74
2021/03/15 01:10:55;;;;;;;13.40;11.97;;;;;;;12.16;52.55;98880.58;1799990;78;21163;-71
2021/03/15 01:13:24;;;;;;;12.63;11.38;;;;;;;12.15;52.58;98879.77;1791194;78;21147;-75
2021/03/15 01:15:52;;;;;;;13.43;11.78;;;;;;;12.14;52.58;98880.77;1793047;77;21135;-73
2021/03/15 01:18:20;;;;;;;13.13;11.78;;;;;;;12.16;52.55;98871.27;1795873;78;21640;-72
2021/03/15 01:20:47;;;;;;;13.05;11.55;;;;;;;12.15;52.58;98869.64;1807739;78;21233;-70
2021/03/15 01:23:15;;;;;;;13.03;11.68;;;;;;;12.15;52.54;98866.97;1816636;78;21104;-71
2021/03/15 01:25:42;;;;;;;13.65;11.95;;;;;;;12.14;52.55;98856.81;1808857;78;21146;-71
2021/03/15 01:28:12;;;;;;;13.60;12.20;;;;;;;12.15;52.53;98855.81;1793580;77;21142;-71
2021/03/15 01:30:42;;;;;;;14.05;12.58;;;;;;;12.14;52.55;98857.33;1803210;77;21718;-71
2021/03/15 01:33:10;;;;;;;13.90;12.50;;;;;;;12.15;52.53;98848.34;1816212;78;21175;-72
2021/03/15 01:35:38;;;;;;;13.98;12.58;;;;;;;12.14;52.53;98852.82;1795593;78;21703;-70
2021/03/15 01:38:06;;;;;;;13.53;12.13;;;;;;;12.13;52.53;98852.52;1811555;77;21154;-71
2021/03/15 01:40:34;;;;;;;14.07;12.63;;;;;;;12.13;52.53;98857.00;1795496;78;21131;-72
2021/03/15 01:43:03;;;;;;;14.20;12.75;;;;;;;12.14;52.50;98863.98;1801711;78;21191;-73
2021/03/15 01:45:31;;;;;;;13.83;12.33;;;;;;;12.14;52.50;98866.65;1742425;80;21154;-73
2021/03/15 01:47:59;;;;;;;14.07;12.68;;;;;;;12.13;52.50;98864.99;1782945;78;21540;-72
2021/03/15 01:50:28;;;;;;;15.03;13.43;;;;;;;12.14;52.50;98874.64;1813621;78;21158;-72
2021/03/15 01:52:55;;;;;;;15.03;13.40;;;;;;;12.13;52.49;98880.97;1791962;77;21110;-71
2021/03/15 01:55:23;;;;;;;15.40;12.88;;;;;;;12.13;52.49;98883.14;1789626;78;21341;-73
2021/03/15 01:57:50;;;;;;;14.83;13.32;;;;;;;12.13;52.52;98879.64;1803918;78;21170;-71
2021/03/15 02:00:19;;;;;;;14.28;12.78;;;;;;;12.12;52.50;98878.83;1810309;77;21170;-74
2021/03/15 02:03:02;;;;;;;15.25;13.48;;;;;;;12.12;52.51;98880.16;1800682;78;21162;-70
2021/03/15 02:05:35;;;;;;;14.25;12.75;;;;;;;12.12;52.50;98882.00;1816047;78;21098;-71
2021/03/15 02:08:07;;;;;;;14.85;13.25;;;;;;;12.11;52.52;98885.19;1815148;78;21192;-72
2021/03/15 02:10:35;;;;;;;15.88;14.18;;;;;;;12.10;52.52;98882.20;1803914;78;21170;-71
2021/03/15 02:13:41;;;;;;;15.68;13.72;;;;;;;12.10;52.54;98878.20;1800424;77;21127;-71
2021/03/15 02:16:32;;;;;;;14.70;13.05;;;;;;;12.10;52.52;98877.39;1785954;78;21583;-71
2021/03/15 02:19:14;;;;;;;15.13;13.45;;;;;;;12.07;52.54;98880.44;1786679;78;21131;-71
2021/03/15 02:22:28;;;;;;;14.93;12.95;;;;;;;12.05;52.61;98881.15;1786744;79;22470;-70
2021/03/15 02:25:23;;;;;;;14.70;13.20;;;;;;;12.05;52.61;98881.15;1790521;78;21183;-70
2021/03/15 02:28:11;;;;;;;15.60;13.40;;;;;;;12.02;52.65;98880.23;1780182;79;21666;-71
2021/03/15 02:31:33;;;;;;;15.80;14.15;;;;;;;11.99;52.68;98880.09;1780835;79;21144;-70
2021/03/15 02:34:15;;;;;;;16.17;13.00;;;;;;;11.98;52.70;98881.95;1788863;78;21123;-69
2021/03/15 02:36:44;;;;;;;14.73;12.85;;;;;;;11.96;52.75;98876.52;1781071;79;21389;-72
2021/03/15 02:39:17;;;;;;;14.85;13.25;;;;;;;11.95;52.78;98873.53;1759911;79;21167;-70
2021/03/15 02:41:49;;;;;;;15.78;13.90;;;;;;;11.95;52.79;98875.67;1798348;78;21112;-70
2021/03/15 02:44:17;;;;;;;15.65;13.98;;;;;;;11.96;52.79;98879.19;1777939;79;21182;-71
2021/03/15 02:46:45;;;;;;;15.23;13.10;;;;;;;11.96;52.79;98869.86;1785138;77;21213;-70
2021/03/15 02:49:17;;;;;;;15.18;13.58;;;;;;;11.98;52.78;98877.14;1782988;79;22264;-70
2021/03/15 02:51:46;;;;;;;16.93;15.13;;;;;;;11.98;52.74;98862.50;1790509;77;21096;-73
2021/03/15 02:54:13;;;;;;;15.88;13.85;;;;;;;11.99;52.75;98868.13;1772485;79;21183;-72
2021/03/15 02:56:44;;;;;;;15.55;13.85;;;;;;;11.99;52.74;98862.80;1764804;78;21172;-71
2021/03/15 02:59:12;;;;;;;15.68;14.07;;;;;;;12.00;52.73;98857.80;1776532;79;21171;-72
2021/03/15 03:01:45;;;;;;;16.42;14.18;;;;;;;11.99;52.70;98859.65;1780329;79;21642;-71
2021/03/15 03:04:15;;;;;;;16.35;14.33;;;;;;;12.00;52.67;98855.95;1796240;77;21129;-72
2021/03/15 03:06:44;;;;;;;16.82;15.03;;;;;;;11.99;52.67;98854.33;1779534;78;21155;-71
2021/03/15 03:09:14;;;;;;;16.15;14.20;;;;;;;12.00;52.67;98847.96;1785247;79;21164;-71
2021/03/15 03:11:42;;;;;;;15.20;13.60;;;;;;;12.01;52.66;98856.77;1780201;79;21694;-73
2021/03/15 03:14:11;;;;;;;16.48;14.78;;;;;;;12.02;52.65;98857.61;1777511;79;21139;-72
2021/03/15 03:16:42;;;;;;;15.70;14.03;;;;;;;12.00;52.64;98857.28;1784886;78;21219;-74
2021/03/15 03:19:15;;;;;;;16.77;14.98;;;;;;;12.00;52.63;98851.95;1792268;77;21663;-74
2021/03/15 03:21:46;;;;;;;16.35;13.62;;;;;;;12.00;52.62;98851.14;1802612;77;21330;-72
2021/03/15 03:24:15;;;;;;;16.40;14.60;;;;;;;12.01;52.61;98852.77;1809316;78;21150;-72
2021/03/15 03:26:43;;;;;;;16.80;14.58;;;;;;;12.00;52.63;98849.81;1792303;77;21297;-72
2021/03/15 03:29:13;;;;;;;16.95;15.15;;;;;;;11.99;52.62;98854.33;1797659;77;21224;-73
2021/03/15 03:31:45;;;;;;;16.17;14.13;;;;;;;11.99;52.65;98856.14;1747547;82;21146;-72
2021/03/15 03:34:13;;;;;;;18.03;16.13;;;;;;;11.99;52.64;98860.13;1817942;78;21159;-71
2021/03/15 03:36:42;;;;;;;16.57;14.80;;;;;;;11.99;52.64;98872.11;1805986;78;21147;-73
2021/03/15 03:39:11;;;;;;;17.10;14.68;;;;;;;11.98;52.64;98866.50;1817027;77;21771;-72
2021/03/15 03:41:40;;;;;;;18.37;16.23;;;;;;;11.99;52.63;98868.96;1791679;77;21115;-72
2021/03/15 03:44:12;;;;;;;18.50;15.43;;;;;;;11.98;52.61;98868.64;1790760;78;21142;-71
2021/03/15 03:46:42;;;;;;;17.85;15.45;;;;;;;11.98;52.63;98872.63;1794678;77;22232;-71
2021/03/15 03:49:10;;;;;;;18.95;15.03;;;;;;;11.98;52.64;98869.16;1800764;78;21127;-72
2021/03/15 03:51:44;;;;;;;17.98;15.03;;;;;;;11.98;52.63;98869.97;1811326;77;21863;-71
2021/03/15 03:54:16;;;;;;;17.67;15.00;;;;;;;11.98;52.64;98871.30;1802912;77;21155;-70
2021/03/15 03:56:59;;;;;;;18.85;16.15;;;;;;;11.97;52.61;98878.95;1798621;77;21619;-72
2021/03/15 03:59:29;;;;;;;18.23;15.68;;;;;;;11.97;52.65;98886.94;1798608;78;21170;-74
2021/03/15 04:01:58;;;;;;;20.75;16.45;;;;;;;11.97;52.63;98887.47;1802140;77;21151;-72
2021/03/15 04:04:28;;;;;;;18.05;14.93;;;;;;;11.96;52.66;98889.31;1802784;78;21408;-71
2021/03/15 04:06:55;;;;;;;17.60;15.00;;;;;;;11.96;52.65;98892.49;1797832;78;21198;-70
2021/03/15 04:09:34;;;;;;;17.98;15.18;;;;;;;11.97;52.65;98901.58;1793023;78;21151;-69
2021/03/15 04:12:08;;;;;;;18.17;16.23;;;;;;;11.96;52.65;98897.30;1812971;77;21186;-70
2021/03/15 04:14:40;;;;;;;18.82;16.27;;;;;;;11.96;52.63;98895.97;1791164;77;21179;-69
2021/03/15 04:17:11;;;;;;;17.98;15.58;;;;;;;11.96;52.66;98897.30;1801426;77;21462;-69
2021/03/15 04:19:58;;;;;;;18.92;15.88;;;;;;;11.96;52.66;98895.16;1795147;78;21151;-71
2021/03/15 04:22:28;;;;;;;19.62;15.98;;;;;;;11.96;52.67;98897.81;1798215;77;21098;-71
2021/03/15 04:24:56;;;;;;;20.35;16.27;;;;;;;11.95;52.68;98901.48;1797461;78;21163;-70
2021/03/15 04:27:24;;;;;;;21.15;16.87;;;;;;;11.94;52.69;98902.52;1788442;77;21143;-71
2021/03/15 04:29:51;;;;;;;20.17;16.75;;;;;;;11.94;52.69;98913.16;1795114;78;21865;-71
2021/03/15 04:32:19;;;;;;;19.55;15.58;;;;;;;11.94;52.68;98904.66;1808833;77;21690;-73
2021/03/15 04:34:46;;;;;;;19.90;16.25;;;;;;;11.95;52.68;98908.13;1781549;78;21162;-71
2021/03/15 04:37:13;;;;;;;21.27;17.87;;;;;;;11.94;52.68;98911.31;1812221;78;21131;-72
2021/03/15 04:39:42;;;;;;;20.15;16.35;;;;;;;11.95;52.67;98909.47;1809184;78;21091;-70
2021/03/15 04:42:10;;;;;;;20.48;17.17;;;;;;;11.96;52.67;98920.44;1786656;77;21224;-70
2021/03/15 04:44:38;;;;;;;20.45;16.45;;;;;;;11.96;52.67;98919.11;1790482;78;21496;-71
2021/03/15 04:47:06;;;;;;;21.50;17.62;;;;;;;11.95;52.67;98923.59;1787688;77;21139;-71
2021/03/15 04:49:38;;;;;;;18.67;15.83;;;;;;;11.97;52.67;98927.39;1802305;78;21167;-71
2021/03/15 04:52:07;;;;;;;20.00;16.10;;;;;;;11.96;52.66;98920.44;1796922;78;21175;-71
2021/03/15 04:54:34;;;;;;;20.05;16.80;;;;;;;11.96;52.66;98932.41;1791881;78;21242;-71
2021/03/15 04:57:03;;;;;;;21.42;16.95;;;;;;;11.96;52.66;98933.23;1783182;78;21146;-71
2021/03/15 04:59:31;;;;;;;21.10;16.73;;;;;;;11.96;52.65;98929.23;1793077;78;21639;-70
2021/03/15 05:01:58;;;;;;;20.62;16.95;;;;;;;11.97;52.66;98927.39;1780504;78;21174;-72
2021/03/15 05:04:26;;;;;;;21.27;17.82;;;;;;;11.96;52.65;98935.89;1807300;78;21099;-73
2021/03/15 05:06:53;;;;;;;20.68;16.60;;;;;;;11.98;52.65;98935.70;1791628;77;21354;-72
2021/03/15 05:09:20;;;;;;;19.92;16.20;;;;;;;11.98;52.65;98933.04;1799326;77;21163;-73
2021/03/15 05:11:50;;;;;;;20.97;17.55;;;;;;;11.98;52.65;98933.04;1724101;80;21503;-72
2021/03/15 05:14:17;;;;;;;21.30;17.62;;;;;;;11.99;52.63;98929.34;1804539;78;21134;-75
2021/03/15 05:16:44;;;;;;;20.32;16.97;;;;;;;11.99;52.64;98938.66;1799863;78;21099;-75
2021/03/15 05:19:12;;;;;;;22.40;18.80;;;;;;;11.99;52.63;98942.16;1792684;77;22669;-75
2021/03/15 05:21:41;;;;;;;20.20;16.85;;;;;;;11.99;52.63;98939.50;1790717;78;21174;-75
2021/03/15 05:24:09;;;;;;;21.95;17.70;;;;;;;12.00;52.60;98941.65;1805906;78;21187;-75
2021/03/15 05:26:40;;;;;;;21.62;18.17;;;;;;;12.00;52.62;98938.98;1791560;78;21219;-69
2021/03/15 05:29:08;;;;;;;19.27;16.42;;;;;;;12.01;52.63;98935.29;1812956;78;21184;-71
2021/03/15 05:31:38;;;;;;;19.77;16.50;;;;;;;12.02;52.61;98935.62;1804829;78;21289;-73
2021/03/15 05:34:07;;;;;;;20.45;17.02;;;;;;;12.03;52.60;98938.57;1791863;78;21138;-73
2021/03/15 05:36:34;;;;;;;20.52;17.65;;;;;;;12.04;52.60;98944.74;1795831;77;21152;-70
2021/03/15 05:39:06;;;;;;;21.77;17.75;;;;;;;12.04;52.59;98946.08;1788598;78;21207;-71
2021/03/15 05:41:44;;;;;;;24.77;19.57;;;;;;;12.04;52.58;98948.22;1808046;78;21120;-72
2021/03/15 05:44:16;;;;;;;23.40;18.45;;;;;;;12.05;52.60;98953.02;1791783;78;21207;-71
2021/03/15 05:47:06;;;;;;;22.42;17.27;;;;;;;12.06;52.59;98948.03;1758320;78;21138;-72
2021/03/15 05:49:51;;;;;;;21.40;17.85;;;;;;;12.06;52.58;98953.35;1794678;78;21551;-74
2021/03/15 05:52:55;;;;;;;23.00;18.27;;;;;;;12.06;52.56;98956.02;1723951;80;21213;-73
2021/03/15 05:55:43;;;;;;;23.25;17.98;;;;;;;12.06;52.60;98952.02;1792067;78;21171;-74
2021/03/15 05:58:42;;;;;;;20.08;17.52;;;;;;;12.03;52.61;98958.54;1789417;77;21794;-75
2021/03/15 06:01:32;;;;;;;21.80;18.25;;;;;;;12.02;52.67;98959.57;1793267;78;21195;-72
2021/03/15 06:04:14;;;;;;;23.92;18.70;;;;;;;12.02;52.69;98968.89;1798876;78;21588;-73
2021/03/15 06:06:42;;;;;;;21.12;17.87;;;;;;;12.02;52.70;98970.73;1805777;78;21127;-71
2021/03/15 06:09:10;;;;;;;23.85;19.10;;;;;;;12.02;52.72;98974.22;1797791;78;21158;-71
2021/03/15 06:11:46;;;;;;;24.00;18.07;;;;;;;12.02;52.73;98967.56;1746783;80;21162;-71
2021/03/15 06:14:13;;;;;;;23.12;18.85;;;;;;;12.05;52.71;98971.66;1791417;78;21147;-73
2021/03/15 06:16:41;;;;;;;22.42;18.52;;;;;;;12.05;52.73;98971.14;1789833;78;21181;-73
2021/03/15 06:19:09;;;;;;;24.80;19.32;;;;;;;12.06;52.70;98974.65;1745655;81;21348;-73
2021/03/15 06:21:36;;;;;;;23.83;18.45;;;;;;;12.07;52.67;98974.95;1807859;78;21138;-71
2021/03/15 06:24:07;;;;;;;23.05;18.12;;;;;;;12.09;52.67;98970.24;1795931;78;21228;-71
2021/03/15 06:26:35;;;;;;;24.27;19.57;;;;;;;12.10;52.66;98971.38;1791697;77;21103;-72
2021/03/15 06:29:03;;;;;;;23.27;18.52;;;;;;;12.12;52.67;98977.85;1799420;78;21099;-70
2021/03/15 06:31:34;;;;;;;24.87;20.15;;;;;;;12.12;52.64;98970.67;1796540;78;21607;-72
2021/03/15 06:34:02;;;;;;;25.02;18.80;;;;;;;12.15;52.80;98972.95;1806210;77;21131;-73
2021/03/15 06:36:33;;;;;;;23.65;19.35;;;;;;;12.17;52.87;98963.45;1797421;78;21677;-76
2021/03/15 06:39:00;;;;;;;23.92;20.02;;;;;;;12.19;52.86;98957.41;1777753;78;21182;-74
2021/03/15 06:41:28;;;;;;;21.37;19.02;;;;;;;12.21;52.84;98964.69;1796084;78;21154;-73
2021/03/15 06:43:55;;;;;;;25.10;19.23;;;;;;;12.24;52.82;98961.62;1806119;78;21160;-73
2021/03/15 06:46:23;;;;;;;23.65;19.48;;;;;;;12.26;52.76;98958.77;1813739;78;21167;-71
2021/03/15 06:48:50;;;;;;;23.40;18.52;;;;;;;12.28;52.72;98959.38;1806541;78;21651;-72
2021/03/15 06:51:18;;;;;;;24.32;20.02;;;;;;;12.32;52.67;98965.95;1813702;77;21119;-72
2021/03/15 06:53:45;;;;;;;24.77;19.00;;;;;;;12.33;52.63;98960.44;1807031;77;21588;-72
2021/03/15 06:56:15;;;;;;;22.52;18.92;;;;;;;12.35;52.58;98958.39;1804680;77;21232;-72
2021/03/15 06:58:54;;;;;;;22.93;18.60;;;;;;;12.38;52.54;98965.16;1792830;78;21674;-72
2021/03/15 07:01:25;;;;;;;23.98;18.57;;;;;;;12.40;52.51;98968.47;1797349;78;21620;-71
2021/03/15 07:06:45;;;;;;;23.95;19.15;;;;;;;12.46;52.44;98966.83;1810205;78;28174;-73
2021/03/15 07:09:15;;;;;;;24.00;18.45;;;;;;;12.43;52.40;98971.23;1720510;79;22280;-73
2021/03/15 07:11:43;;;;;;;22.90;19.45;;;;;;;12.45;52.39;98967.86;1768092;78;21381;-73
2021/03/15 07:14:26;;;;;;;23.18;19.40;;;;;;;12.46;52.36;98966.83;1782310;78;21166;-72
2021/03/15 07:16:59;;;;;;;25.50;19.73;;;;;;;12.47;52.35;98961.82;1778540;78;26718;-72
2021/03/15 07:19:28;;;;;;;23.00;18.82;;;;;;;12.48;52.31;98962.96;1773272;80;21191;-72
2021/03/15 07:21:55;;;;;;;26.07;20.75;;;;;;;12.50;52.30;98965.44;1803458;78;21151;-72
2021/03/15 07:24:30;;;;;;;23.38;19.27;;;;;;;12.50;52.28;98958.77;1765533;78;22743;-72
2021/03/15 07:26:58;;;;;;;24.05;18.90;;;;;;;12.52;52.25;98960.73;1765970;80;21569;-73
2021/03/15 07:29:28;;;;;;;25.17;20.17;;;;;;;12.52;52.21;98950.88;1761017;78;21194;-72
2021/03/15 07:31:55;;;;;;;22.77;19.00;;;;;;;12.55;52.18;98951.80;1771253;79;21174;-72
2021/03/15 07:34:23;;;;;;;22.80;19.05;;;;;;;12.57;52.14;98952.94;1758911;80;21147;-72
2021/03/15 07:36:55;;;;;;;24.57;20.17;;;;;;;12.59;52.14;98951.73;1756724;80;21670;-72
2021/03/15 07:39:27;;;;;;;22.42;18.77;;;;;;;12.62;52.10;98953.16;1762378;80;21183;-71
2021/03/15 07:41:57;;;;;;;23.18;18.85;;;;;;;12.64;52.04;98956.45;1756145;80;22152;-72
2021/03/15 07:44:30;;;;;;;22.67;19.65;;;;;;;12.66;52.01;98950.41;1758585;80;21665;-72
2021/03/15 07:47:04;;;;;;;24.02;20.17;;;;;;;12.69;51.97;98954.50;1762053;80;21560;-71
2021/03/15 07:49:39;;;;;;;26.70;20.95;;;;;;;12.70;51.91;98959.64;1759338;80;21439;-72
2021/03/15 07:52:12;;;;;;;22.10;19.02;;;;;;;12.73;51.88;98962.43;1761422;80;21189;-71
2021/03/15 07:54:42;;;;;;;22.42;19.25;;;;;;;12.74;51.86;98958.21;1768453;80;21643;-72
2021/03/15 07:57:21;;;;;;;24.95;20.30;;;;;;;12.76;51.82;98962.83;1769609;80;21212;-72
2021/03/15 07:59:57;;;;;;;24.18;20.25;;;;;;;12.79;51.80;98956.29;1761548;80;21202;-72
2021/03/15 08:02:30;;;;;;;27.13;20.43;;;;;;;12.81;51.76;98965.42;1771915;80;21334;-73
2021/03/15 08:04:59;;;;;;;26.60;20.12;;;;;;;12.81;51.75;98956.09;1764756;80;26278;-73
2021/03/15 08:07:28;;;;;;;25.60;20.45;;;;;;;12.83;51.70;98956.72;1767758;80;21163;-72
2021/03/15 08:09:59;;;;;;;25.37;20.43;;;;;;;12.84;51.67;98955.16;1759038;80;21616;-72
2021/03/15 08:12:32;;;;;;;;;;;;;;;12.88;51.65;98956.91;1776918;80;21151;-71
2021/03/15 08:15:10;;;;;;;25.15;20.23;;;;;;;12.89;51.63;98958.56;1767864;80;21462;-72
2021/03/15 08:17:45;;;;;;;24.67;20.12;;;;;;;12.83;51.71;98956.72;1766465;80;21171;-72
2021/03/15 08:20:15;;;;;;;25.50;20.10;;;;;;;12.84;51.70;98950.34;1752611;80;21157;-73
2021/03/15 08:22:45;;;;;;;24.02;19.15;;;;;;;12.87;51.67;98952.62;1762858;80;21211;-73
2021/03/15 08:25:13;;;;;;;24.12;19.57;;;;;;;12.90;51.67;98949.53;1769265;80;21671;-72
2021/03/15 08:27:42;;;;;;;24.50;19.85;;;;;;;12.92;51.61;98956.32;1748680;80;22505;-73
2021/03/15 08:30:15;;;;;;;24.67;20.40;;;;;;;12.94;51.60;98951.61;1747993;80;21191;-72
2021/03/15 08:32:43;;;;;;;27.02;21.45;;;;;;;12.97;51.57;98953.03;1752291;80;21194;-70
2021/03/15 08:35:16;;;;;;;23.90;20.57;;;;;;;12.99;51.51;98959.80;1753601;80;21229;-72
2021/03/15 08:38:01;;;;;;;25.12;19.40;;;;;;;12.99;51.50;98959.80;1761519;80;21175;-73
2021/03/15 08:40:48;;;;;;;25.70;20.65;;;;;;;13.00;51.47;98963.30;1757261;80;21370;-71
2021/03/15 08:43:23;;;;;;;23.80;20.27;;;;;;;13.02;51.46;98964.41;1760388;80;21130;-73
2021/03/15 08:46:08;;;;;;;25.00;21.42;;;;;;;13.01;51.47;98962.27;1752904;80;21156;-73
2021/03/15 08:48:48;;;;;;;25.00;20.70;;;;;;;13.02;51.46;98967.08;1748799;80;21179;-73
2021/03/15 08:51:38;;;;;;;25.68;21.27;;;;;;;13.02;51.42;98961.26;1757801;80;21203;-73
2021/03/15 08:54:08;;;;;;;25.57;20.40;;;;;;;13.04;51.43;98962.36;1754881;80;21596;-74
2021/03/15 08:56:44;;;;;;;30.00;21.50;;;;;;;13.04;51.43;98967.20;1752110;80;21207;-74
2021/03/15 08:59:13;;;;;;;28.23;20.90;;;;;;;13.04;51.41;98969.03;1758173;80;21219;-74
2021/03/15 09:01:52;;;;;;;29.42;21.75;;;;;;;13.04;51.43;98967.20;1757495;80;21171;-74
2021/03/15 09:04:33;;;;;;;28.17;21.48;;;;;;;13.05;51.40;98967.50;1787628;79;21597;-74
2021/03/15 09:07:05;;;;;;;28.00;22.15;;;;;;;13.05;51.40;98972.83;1782260;78;21211;-72
2021/03/15 09:09:34;;;;;;;31.85;23.40;;;;;;;13.06;51.42;98974.48;1716030;79;21194;-74
2021/03/15 09:12:03;;;;;;;30.20;21.68;;;;;;;13.06;51.40;98973.67;1786554;78;21155;-74
2021/03/15 09:14:34;;;;;;;29.02;22.85;;;;;;;13.07;51.39;98973.45;1802796;78;21190;-73
2021/03/15 09:17:28;;;;;;;34.97;29.57;;;;;;;13.12;51.40;98964.34;1750106;79;28831;-75
2021/03/15 09:19:58;;;;;;;32.35;23.83;;;;;;;13.35;51.10;98969.83;1732673;81;21199;-74
2021/03/15 09:22:31;;;;;;;28.02;23.70;;;;;;;13.59;50.51;98963.56;1747432;80;21369;-76
2021/03/15 09:25:07;;;;;;;30.80;24.30;;;;;;;13.50;50.55;98957.11;1739089;81;21213;-73
2021/03/15 09:27:47;;;;;;;28.62;21.82;;;;;;;13.45;50.63;98962.23;1745052;80;21667;-74
2021/03/15 09:35:42;;;;;;;32.13;23.10;;;;;;;13.39;50.78;98955.05;1814800;77;28279;-72
2021/03/15 09:38:11;;;;;;;33.28;24.75;;;;;;;13.22;50.90;98953.27;1793763;78;21194;-72
2021/03/15 09:40:49;;;;;;;34.40;24.63;;;;;;;13.28;50.93;98962.30;1792111;78;21200;-73
2021/03/15 09:43:25;;;;;;;31.05;22.93;;;;;;;13.26;50.95;98958.50;1777104;78;21718;-73
2021/03/15 09:46:04;;;;;;;30.32;23.12;;;;;;;13.27;51.00;98957.98;1728718;81;21647;-73
2021/03/15 09:48:34;;;;;;;33.55;24.55;;;;;;;13.28;51.01;98963.63;1739893;81;21096;-73
2021/03/15 09:51:05;;;;;;;31.93;23.07;;;;;;;13.26;51.04;98961.16;1730184;81;21185;-75
2021/03/15 09:53:51;;;;;;;32.05;24.90;;;;;;;13.26;51.06;98966.50;1724488;80;22231;-73
2021/03/15 09:56:22;;;;;;;31.65;23.73;;;;;;;13.27;51.04;98964.64;1725387;82;21211;-74
2021/03/15 09:58:52;;;;;;;32.00;24.80;;;;;;;13.27;51.08;98961.98;1703333;82;21607;-73
2021/03/15 10:01:22;;;;;;;34.25;24.98;;;;;;;13.28;51.07;98956.97;1722218;82;21207;-77
2021/03/15 10:04:04;;;;;;;32.67;24.87;;;;;;;13.28;51.07;98961.78;1712337;81;21208;-77
2021/03/15 10:06:50;;;;;;;33.95;24.70;;;;;;;13.28;51.08;98960.96;1704184;81;22702;-74
2021/03/15 10:09:39;;;;;;;37.63;24.18;;;;;;;13.28;51.12;98966.30;1722890;81;21586;-75
2021/03/15 10:12:26;;;;;;;34.15;24.12;;;;;;;13.27;51.14;98964.16;1725383;81;21598;-75
2021/03/15 10:15:14;;;;;;;33.53;24.45;;;;;;;13.27;51.17;98957.98;1728372;81;21255;-76
2021/03/15 10:18:13;;;;;;;33.50;25.02;;;;;;;13.31;51.18;98963.27;1762580;79;28230;-75
2021/03/15 10:20:57;;;;;;;34.63;25.32;;;;;;;13.27;51.16;98970.82;1746102;80;21201;-75
2021/03/15 10:23:31;;;;;;;35.85;25.60;;;;;;;13.26;51.22;98969.69;1736421;81;22634;-74
2021/03/15 10:26:10;;;;;;;33.05;25.32;;;;;;;13.30;51.22;98968.28;1803507;77;28230;-74
2021/03/15 10:28:51;;;;;;;36.13;26.27;;;;;;;13.26;51.20;98973.17;1781241;78;21139;-75
2021/03/15 10:31:29;;;;;;;36.77;25.92;;;;;;;13.31;51.24;98968.60;1753971;78;28234;-75
2021/03/15 10:34:05;;;;;;;36.55;25.82;;;;;;;13.27;51.23;98972.64;1722531;82;21611;-76
2021/03/15 10:36:38;;;;;;;37.42;25.77;;;;;;;13.26;51.24;98967.02;1697934;82;21596;-75
2021/03/15 10:39:27;;;;;;;34.98;26.17;;;;;;;13.30;51.25;98960.28;1805771;77;28678;-76
2021/03/15 10:41:58;;;;;;;35.73;25.27;;;;;;;13.26;51.27;98967.83;1783425;78;21728;-75
2021/03/15 10:44:35;;;;;;;34.33;25.62;;;;;;;13.26;51.28;98963.02;1776738;79;22390;-77
2021/03/15 10:47:16;;;;;;;38.58;26.65;;;;;;;13.29;51.32;98959.92;1795555;78;28251;-75
2021/03/15 10:49:49;;;;;;;35.52;26.23;;;;;;;13.25;51.31;98961.36;1770377;80;21166;-75
2021/03/15 10:52:37;;;;;;;35.58;24.45;;;;;;;13.24;51.32;98958.41;1763500;79;22302;-75
2021/03/15 10:55:14;;;;;;;35.45;24.23;;;;;;;13.22;51.34;98950.59;1768808;80;28009;-76
2021/03/15 10:58:06;;;;;;;33.75;26.35;;;;;;;13.21;51.40;98950.27;1749240;79;22223;-74
2021/03/15 11:00:54;;;;;;;36.65;25.23;;;;;;;13.24;51.45;98947.73;1815124;77;28259;-74
2021/03/15 11:03:30;;;;;;;35.08;25.50;;;;;;;13.17;51.44;98948.56;1803390;77;21559;-74
2021/03/15 11:06:19;;;;;;;34.88;25.45;;;;;;;13.20;51.49;98949.17;1806337;77;28322;-75
2021/03/15 11:08:56;;;;;;;33.58;24.40;;;;;;;13.16;51.49;98949.56;1776681;79;21199;-74
2021/03/15 11:11:32;;;;;;;;;;;;;;;13.14;51.52;98944.14;1794734;78;21350;-75
2021/03/15 11:14:11;;;;;;;33.98;25.48;;;;;;;13.13;51.56;98940.66;1800962;78;20710;-77
2021/03/15 11:16:44;;;;;;;35.50;25.88;;;;;;;13.06;51.70;98939.83;1782154;78;21199;-74
2021/03/15 11:19:17;;;;;;;35.43;25.20;;;;;;;13.06;51.73;98933.68;1757015;80;21623;-74
2021/03/15 11:21:51;;;;;;;34.35;25.27;;;;;;;13.06;51.73;98927.83;1824298;77;21119;-74
2021/03/15 11:24:28;;;;;;;33.90;25.70;;;;;;;13.06;51.73;98931.02;1791969;77;21358;-74
2021/03/15 11:27:04;;;;;;;38.63;25.40;;;;;;;13.07;51.76;98928.64;1824405;77;21176;-74
2021/03/15 11:29:43;;;;;;;33.50;25.02;;;;;;;13.06;51.75;98922.49;1823236;77;21210;-73
2021/03/15 11:32:33;;;;;;;35.00;24.82;;;;;;;13.06;51.77;98914.50;1742080;79;21218;-75
2021/03/15 11:35:20;;;;;;;32.58;24.75;;;;;;;13.08;51.79;98909.77;1800121;78;28272;-72
2021/03/15 11:37:51;;;;;;;31.20;24.15;;;;;;;13.05;51.81;98920.84;1789682;79;20946;-74
2021/03/15 11:40:29;;;;;;;38.20;27.13;;;;;;;13.04;51.83;98917.88;1775246;80;22048;-74
2021/03/15 11:42:58;;;;;;;34.92;25.23;;;;;;;13.04;51.83;98917.03;1764827;79;21569;-76
2021/03/15 11:45:26;;;;;;;32.38;24.57;;;;;;;13.03;51.84;98914.89;1784237;79;21151;-74
2021/03/15 11:47:54;;;;;;;35.10;26.00;;;;;;;13.03;51.87;98926.89;1789170;79;21135;-73
2021/03/15 11:50:28;;;;;;;32.88;24.60;;;;;;;13.03;51.87;98924.22;1790024;79;21171;-74
2021/03/15 11:52:58;;;;;;;32.85;24.32;;;;;;;13.02;51.88;98925.27;1792222;79;22368;-74